sensor_id;sensor_type;location;lat;lon;timestamp;P1;durP1;ratioP1;P2;durP2;ratioP2
22186;SDS011;11259;52.146;12.844;2023-02-18T00:02:06;0.63;;;0.63;;
22186;SDS011;11259;52.146;12.844;2023-02-18T00:04:32;1.15;;;0.70;;
22186;SDS011;11259;52.146;12.844;2023-02-18T00:06:57;0.60;;;0.60;;
22186;SDS011;11259;52.146;12.844;2023-02-18T00:09:23;0.95;;;0.77;;
22186;SDS011;11259;52.146;12.844;2023-02-18T00:11:50;5.72;;;1.02;;
22186;SDS011;11259;52.146;12.844;2023-02-18T00:14:15;0.80;;;0.80;;
22186;SDS011;11259;52.146;12.844;2023-02-18T00:16:41;3.83;;;0.80;;
22186;SDS011;11259;52.146;12.844;2023-02-18T00:19:07;0.50;;;0.50;;
22186;SDS011;11259;52.146;12.844;2023-02-18T00:21:36;2.50;;;0.57;;
22186;SDS011;11259;52.146;12.844;2023-02-18T00:24:01;0.50;;;0.50;;
22186;SDS011;11259;52.146;12.844;2023-02-18T00:26:27;2.45;;;1.13;;
22186;SDS011;11259;52.146;12.844;2023-02-18T00:28:54;1.63;;;0.80;;
22186;SDS011;11259;52.146;12.844;2023-02-18T00:31:21;0.77;;;0.60;;
22186;SDS011;11259;52.146;12.844;2023-02-18T00:33:47;1.27;;;1.13;;
22186;SDS011;11259;52.146;12.844;2023-02-18T00:36:17;1.45;;;0.85;;
22186;SDS011;11259;52.146;12.844;2023-02-18T00:38:43;1.15;;;0.68;;
22186;SDS011;11259;52.146;12.844;2023-02-18T00:41:09;1.08;;;0.60;;
22186;SDS011;11259;52.146;12.844;2023-02-18T00:43:35;0.95;;;0.65;;
22186;SDS011;11259;52.146;12.844;2023-02-18T00:46:01;0.50;;;0.50;;
22186;SDS011;11259;52.146;12.844;2023-02-18T00:48:27;2.15;;;0.68;;
22186;SDS011;11259;52.146;12.844;2023-02-18T00:50:52;0.40;;;0.40;;
22186;SDS011;11259;52.146;12.844;2023-02-18T00:53:17;0.70;;;0.70;;
22186;SDS011;11259;52.146;12.844;2023-02-18T00:55:43;3.80;;;1.60;;
22186;SDS011;11259;52.146;12.844;2023-02-18T00:58:10;0.80;;;0.80;;
22186;SDS011;11259;52.146;12.844;2023-02-18T01:00:35;1.85;;;0.85;;
22186;SDS011;11259;52.146;12.844;2023-02-18T01:03:02;1.75;;;1.13;;
22186;SDS011;11259;52.146;12.844;2023-02-18T01:05:28;2.20;;;0.70;;
22186;SDS011;11259;52.146;12.844;2023-02-18T01:07:53;2.42;;;1.10;;
22186;SDS011;11259;52.146;12.844;2023-02-18T01:10:19;0.73;;;0.73;;
22186;SDS011;11259;52.146;12.844;2023-02-18T01:12:44;0.70;;;0.57;;
22186;SDS011;11259;52.146;12.844;2023-02-18T01:15:10;1.60;;;1.45;;
22186;SDS011;11259;52.146;12.844;2023-02-18T01:17:36;0.63;;;0.63;;
22186;SDS011;11259;52.146;12.844;2023-02-18T01:20:03;0.57;;;0.57;;
22186;SDS011;11259;52.146;12.844;2023-02-18T01:22:29;0.50;;;0.50;;
22186;SDS011;11259;52.146;12.844;2023-02-18T01:24:55;1.48;;;1.38;;
22186;SDS011;11259;52.146;12.844;2023-02-18T01:27:20;0.75;;;0.70;;
22186;SDS011;11259;52.146;12.844;2023-02-18T01:29:45;2.08;;;0.70;;
22186;SDS011;11259;52.146;12.844;2023-02-18T01:32:11;0.93;;;0.93;;
22186;SDS011;11259;52.146;12.844;2023-02-18T01:34:36;0.70;;;0.70;;
22186;SDS011;11259;52.146;12.844;2023-02-18T01:37:03;0.75;;;0.75;;
22186;SDS011;11259;52.146;12.844;2023-02-18T01:39:28;0.93;;;0.57;;
22186;SDS011;11259;52.146;12.844;2023-02-18T01:41:53;0.45;;;0.43;;
22186;SDS011;11259;52.146;12.844;2023-02-18T01:44:20;0.98;;;0.80;;
22186;SDS011;11259;52.146;12.844;2023-02-18T01:46:46;0.50;;;0.50;;
22186;SDS011;11259;52.146;12.844;2023-02-18T01:49:13;0.45;;;0.45;;
22186;SDS011;11259;52.146;12.844;2023-02-18T01:51:41;0.75;;;0.60;;
22186;SDS011;11259;52.146;12.844;2023-02-18T01:54:10;0.70;;;0.70;;
22186;SDS011;11259;52.146;12.844;2023-02-18T01:56:38;0.50;;;0.50;;
22186;SDS011;11259;52.146;12.844;2023-02-18T01:59:06;1.88;;;1.15;;
22186;SDS011;11259;52.146;12.844;2023-02-18T02:01:34;0.77;;;0.77;;
22186;SDS011;11259;52.146;12.844;2023-02-18T02:04:00;0.75;;;0.60;;
22186;SDS011;11259;52.146;12.844;2023-02-18T02:06:25;0.60;;;0.60;;
22186;SDS011;11259;52.146;12.844;2023-02-18T02:08:52;1.23;;;0.82;;
22186;SDS011;11259;52.146;12.844;2023-02-18T02:11:22;0.50;;;0.50;;
22186;SDS011;11259;52.146;12.844;2023-02-18T02:13:56;0.95;;;0.95;;
22186;SDS011;11259;52.146;12.844;2023-02-18T02:16:36;0.55;;;0.55;;
22186;SDS011;11259;52.146;12.844;2023-02-18T02:22:16;0.52;;;0.52;;
22186;SDS011;11259;52.146;12.844;2023-02-18T02:25:16;1.25;;;0.57;;
22186;SDS011;11259;52.146;12.844;2023-02-18T02:30:57;0.60;;;0.60;;
22186;SDS011;11259;52.146;12.844;2023-02-18T02:33:37;0.70;;;0.60;;
22186;SDS011;11259;52.146;12.844;2023-02-18T02:36:14;0.50;;;0.50;;
22186;SDS011;11259;52.146;12.844;2023-02-18T02:38:43;0.60;;;0.60;;
22186;SDS011;11259;52.146;12.844;2023-02-18T02:41:16;0.65;;;0.65;;
22186;SDS011;11259;52.146;12.844;2023-02-18T02:43:49;1.25;;;0.65;;
22186;SDS011;11259;52.146;12.844;2023-02-18T02:46:18;0.65;;;0.65;;
22186;SDS011;11259;52.146;12.844;2023-02-18T02:48:48;1.58;;;0.50;;
22186;SDS011;11259;52.146;12.844;2023-02-18T02:51:19;0.50;;;0.50;;
22186;SDS011;11259;52.146;12.844;2023-02-18T02:53:48;1.17;;;0.75;;
22186;SDS011;11259;52.146;12.844;2023-02-18T02:56:14;1.50;;;0.60;;
22186;SDS011;11259;52.146;12.844;2023-02-18T02:58:39;1.55;;;1.45;;
22186;SDS011;11259;52.146;12.844;2023-02-18T03:01:09;1.98;;;0.60;;
22186;SDS011;11259;52.146;12.844;2023-02-18T03:03:52;2.50;;;1.08;;
22186;SDS011;11259;52.146;12.844;2023-02-18T03:06:39;1.10;;;0.55;;
22186;SDS011;11259;52.146;12.844;2023-02-18T03:09:12;1.45;;;1.35;;
22186;SDS011;11259;52.146;12.844;2023-02-18T03:11:42;1.13;;;0.85;;
22186;SDS011;11259;52.146;12.844;2023-02-18T03:14:17;0.60;;;0.60;;
22186;SDS011;11259;52.146;12.844;2023-02-18T03:16:48;0.80;;;0.80;;
22186;SDS011;11259;52.146;12.844;2023-02-18T03:19:17;0.50;;;0.50;;
22186;SDS011;11259;52.146;12.844;2023-02-18T03:21:48;0.50;;;0.50;;
22186;SDS011;11259;52.146;12.844;2023-02-18T03:24:19;2.65;;;0.90;;
22186;SDS011;11259;52.146;12.844;2023-02-18T03:26:49;0.77;;;0.77;;
22186;SDS011;11259;52.146;12.844;2023-02-18T03:29:17;1.98;;;0.82;;
22186;SDS011;11259;52.146;12.844;2023-02-18T03:31:43;1.20;;;1.10;;
22186;SDS011;11259;52.146;12.844;2023-02-18T03:34:11;1.35;;;0.63;;
22186;SDS011;11259;52.146;12.844;2023-02-18T03:36:39;0.88;;;0.85;;
22186;SDS011;11259;52.146;12.844;2023-02-18T03:39:08;0.52;;;0.52;;
22186;SDS011;11259;52.146;12.844;2023-02-18T03:41:36;1.50;;;0.93;;
22186;SDS011;11259;52.146;12.844;2023-02-18T03:44:03;0.50;;;0.50;;
22186;SDS011;11259;52.146;12.844;2023-02-18T03:46:29;0.52;;;0.52;;
22186;SDS011;11259;52.146;12.844;2023-02-18T03:48:56;0.50;;;0.50;;
22186;SDS011;11259;52.146;12.844;2023-02-18T03:51:21;1.17;;;1.08;;
22186;SDS011;11259;52.146;12.844;2023-02-18T03:53:47;0.80;;;0.80;;
22186;SDS011;11259;52.146;12.844;2023-02-18T03:56:13;0.60;;;0.60;;
22186;SDS011;11259;52.146;12.844;2023-02-18T03:58:39;0.93;;;0.82;;
22186;SDS011;11259;52.146;12.844;2023-02-18T04:01:04;1.77;;;1.52;;
22186;SDS011;11259;52.146;12.844;2023-02-18T04:03:30;0.57;;;0.57;;
22186;SDS011;11259;52.146;12.844;2023-02-18T04:05:55;0.50;;;0.50;;
22186;SDS011;11259;52.146;12.844;2023-02-18T04:08:21;0.70;;;0.70;;
22186;SDS011;11259;52.146;12.844;2023-02-18T04:10:46;0.75;;;0.75;;
22186;SDS011;11259;52.146;12.844;2023-02-18T04:13:13;0.55;;;0.55;;
22186;SDS011;11259;52.146;12.844;2023-02-18T04:15:38;1.80;;;1.30;;
22186;SDS011;11259;52.146;12.844;2023-02-18T04:18:03;0.63;;;0.63;;
22186;SDS011;11259;52.146;12.844;2023-02-18T04:20:29;0.80;;;0.80;;
22186;SDS011;11259;52.146;12.844;2023-02-18T04:22:54;0.43;;;0.43;;
22186;SDS011;11259;52.146;12.844;2023-02-18T04:25:20;0.95;;;0.88;;
22186;SDS011;11259;52.146;12.844;2023-02-18T04:27:45;1.35;;;0.57;;
22186;SDS011;11259;52.146;12.844;2023-02-18T04:30:12;0.73;;;0.73;;
22186;SDS011;11259;52.146;12.844;2023-02-18T04:32:38;0.60;;;0.60;;
22186;SDS011;11259;52.146;12.844;2023-02-18T04:35:03;0.50;;;0.50;;
22186;SDS011;11259;52.146;12.844;2023-02-18T04:37:29;0.43;;;0.43;;
22186;SDS011;11259;52.146;12.844;2023-02-18T04:39:54;0.98;;;0.98;;
22186;SDS011;11259;52.146;12.844;2023-02-18T04:42:19;0.52;;;0.52;;
22186;SDS011;11259;52.146;12.844;2023-02-18T04:44:45;0.80;;;0.73;;
22186;SDS011;11259;52.146;12.844;2023-02-18T04:47:11;0.55;;;0.55;;
22186;SDS011;11259;52.146;12.844;2023-02-18T04:49:37;1.88;;;0.60;;
22186;SDS011;11259;52.146;12.844;2023-02-18T04:52:02;0.80;;;0.80;;
22186;SDS011;11259;52.146;12.844;2023-02-18T04:54:28;1.90;;;0.90;;
22186;SDS011;11259;52.146;12.844;2023-02-18T04:56:53;0.60;;;0.60;;
22186;SDS011;11259;52.146;12.844;2023-02-18T04:59:18;1.05;;;0.90;;
22186;SDS011;11259;52.146;12.844;2023-02-18T05:01:44;4.15;;;1.73;;
22186;SDS011;11259;52.146;12.844;2023-02-18T05:04:10;0.75;;;0.75;;
22186;SDS011;11259;52.146;12.844;2023-02-18T05:06:36;0.50;;;0.50;;
22186;SDS011;11259;52.146;12.844;2023-02-18T05:09:01;0.65;;;0.63;;
22186;SDS011;11259;52.146;12.844;2023-02-18T05:11:27;2.67;;;0.98;;
22186;SDS011;11259;52.146;12.844;2023-02-18T05:13:52;0.50;;;0.50;;
22186;SDS011;11259;52.146;12.844;2023-02-18T05:16:17;2.17;;;1.38;;
22186;SDS011;11259;52.146;12.844;2023-02-18T05:18:43;0.68;;;0.68;;
22186;SDS011;11259;52.146;12.844;2023-02-18T05:21:09;0.50;;;0.50;;
22186;SDS011;11259;52.146;12.844;2023-02-18T05:23:34;1.55;;;0.80;;
22186;SDS011;11259;52.146;12.844;2023-02-18T05:26:00;0.47;;;0.47;;
22186;SDS011;11259;52.146;12.844;2023-02-18T05:28:25;0.60;;;0.60;;
22186;SDS011;11259;52.146;12.844;2023-02-18T05:30:50;0.50;;;0.50;;
22186;SDS011;11259;52.146;12.844;2023-02-18T05:33:16;0.63;;;0.63;;
22186;SDS011;11259;52.146;12.844;2023-02-18T05:35:41;0.57;;;0.57;;
22186;SDS011;11259;52.146;12.844;2023-02-18T05:38:08;2.28;;;0.70;;
22186;SDS011;11259;52.146;12.844;2023-02-18T05:40:33;0.60;;;0.60;;
22186;SDS011;11259;52.146;12.844;2023-02-18T05:42:58;2.83;;;1.10;;
22186;SDS011;11259;52.146;12.844;2023-02-18T05:45:24;0.57;;;0.57;;
22186;SDS011;11259;52.146;12.844;2023-02-18T05:47:49;2.53;;;0.95;;
22186;SDS011;11259;52.146;12.844;2023-02-18T05:50:14;0.60;;;0.60;;
22186;SDS011;11259;52.146;12.844;2023-02-18T05:52:40;2.08;;;0.70;;
22186;SDS011;11259;52.146;12.844;2023-02-18T05:55:06;1.05;;;0.80;;
22186;SDS011;11259;52.146;12.844;2023-02-18T05:57:32;0.50;;;0.50;;
22186;SDS011;11259;52.146;12.844;2023-02-18T05:59:57;1.30;;;0.60;;
22186;SDS011;11259;52.146;12.844;2023-02-18T06:02:22;0.85;;;0.85;;
22186;SDS011;11259;52.146;12.844;2023-02-18T06:04:48;3.30;;;1.10;;
22186;SDS011;11259;52.146;12.844;2023-02-18T06:07:13;0.50;;;0.50;;
22186;SDS011;11259;52.146;12.844;2023-02-18T06:09:38;0.63;;;0.52;;
22186;SDS011;11259;52.146;12.844;2023-02-18T06:12:05;1.83;;;0.60;;
22186;SDS011;11259;52.146;12.844;2023-02-18T06:14:31;0.73;;;0.73;;
22186;SDS011;11259;52.146;12.844;2023-02-18T06:16:56;0.60;;;0.60;;
22186;SDS011;11259;52.146;12.844;2023-02-18T06:19:22;0.85;;;0.70;;
22186;SDS011;11259;52.146;12.844;2023-02-18T06:21:48;3.03;;;0.80;;
22186;SDS011;11259;52.146;12.844;2023-02-18T06:24:14;1.33;;;1.00;;
22186;SDS011;11259;52.146;12.844;2023-02-18T06:26:39;0.70;;;0.70;;
22186;SDS011;11259;52.146;12.844;2023-02-18T06:29:06;0.52;;;0.52;;
22186;SDS011;11259;52.146;12.844;2023-02-18T06:31:31;0.40;;;0.40;;
22186;SDS011;11259;52.146;12.844;2023-02-18T06:33:56;0.50;;;0.50;;
22186;SDS011;11259;52.146;12.844;2023-02-18T06:36:22;0.50;;;0.50;;
22186;SDS011;11259;52.146;12.844;2023-02-18T06:38:47;1.63;;;0.80;;
22186;SDS011;11259;52.146;12.844;2023-02-18T06:41:12;0.55;;;0.52;;
22186;SDS011;11259;52.146;12.844;2023-02-18T06:43:38;0.50;;;0.50;;
22186;SDS011;11259;52.146;12.844;2023-02-18T06:46:05;0.55;;;0.55;;
22186;SDS011;11259;52.146;12.844;2023-02-18T06:48:30;0.50;;;0.50;;
22186;SDS011;11259;52.146;12.844;2023-02-18T06:50:56;1.90;;;1.40;;
22186;SDS011;11259;52.146;12.844;2023-02-18T06:53:21;0.50;;;0.50;;
22186;SDS011;11259;52.146;12.844;2023-02-18T06:55:47;0.57;;;0.57;;
22186;SDS011;11259;52.146;12.844;2023-02-18T06:58:12;0.50;;;0.50;;
22186;SDS011;11259;52.146;12.844;2023-02-18T07:00:38;0.52;;;0.52;;
22186;SDS011;11259;52.146;12.844;2023-02-18T07:03:05;0.55;;;0.55;;
22186;SDS011;11259;52.146;12.844;2023-02-18T07:05:30;0.40;;;0.40;;
22186;SDS011;11259;52.146;12.844;2023-02-18T07:07:56;0.70;;;0.70;;
22186;SDS011;11259;52.146;12.844;2023-02-18T07:10:21;1.58;;;0.68;;
22186;SDS011;11259;52.146;12.844;2023-02-18T07:12:47;1.15;;;1.05;;
22186;SDS011;11259;52.146;12.844;2023-02-18T07:15:12;0.50;;;0.50;;
22186;SDS011;11259;52.146;12.844;2023-02-18T07:17:37;0.73;;;0.70;;
22186;SDS011;11259;52.146;12.844;2023-02-18T07:20:05;0.57;;;0.57;;
22186;SDS011;11259;52.146;12.844;2023-02-18T07:22:31;1.42;;;0.50;;
22186;SDS011;11259;52.146;12.844;2023-02-18T07:24:56;0.60;;;0.60;;
22186;SDS011;11259;52.146;12.844;2023-02-18T07:27:22;1.33;;;0.75;;
22186;SDS011;11259;52.146;12.844;2023-02-18T07:29:48;0.50;;;0.50;;
22186;SDS011;11259;52.146;12.844;2023-02-18T07:32:14;0.60;;;0.60;;
22186;SDS011;11259;52.146;12.844;2023-02-18T07:34:40;0.95;;;0.80;;
22186;SDS011;11259;52.146;12.844;2023-02-18T07:37:07;0.75;;;0.75;;
22186;SDS011;11259;52.146;12.844;2023-02-18T07:39:33;0.60;;;0.60;;
22186;SDS011;11259;52.146;12.844;2023-02-18T07:41:58;1.23;;;1.00;;
22186;SDS011;11259;52.146;12.844;2023-02-18T07:44:23;0.90;;;0.90;;
22186;SDS011;11259;52.146;12.844;2023-02-18T07:46:49;1.23;;;1.13;;
22186;SDS011;11259;52.146;12.844;2023-02-18T07:49:14;0.60;;;0.60;;
22186;SDS011;11259;52.146;12.844;2023-02-18T07:51:39;0.60;;;0.60;;
22186;SDS011;11259;52.146;12.844;2023-02-18T07:54:06;3.90;;;1.35;;
22186;SDS011;11259;52.146;12.844;2023-02-18T07:56:31;1.45;;;1.30;;
22186;SDS011;11259;52.146;12.844;2023-02-18T07:58:56;0.55;;;0.55;;
22186;SDS011;11259;52.146;12.844;2023-02-18T08:01:22;1.65;;;0.63;;
22186;SDS011;11259;52.146;12.844;2023-02-18T08:03:47;0.80;;;0.70;;
22186;SDS011;11259;52.146;12.844;2023-02-18T08:06:18;0.65;;;0.60;;
22186;SDS011;11259;52.146;12.844;2023-02-18T08:08:45;1.10;;;0.80;;
22186;SDS011;11259;52.146;12.844;2023-02-18T08:11:12;0.77;;;0.77;;
22186;SDS011;11259;52.146;12.844;2023-02-18T08:13:37;0.70;;;0.70;;
22186;SDS011;11259;52.146;12.844;2023-02-18T08:16:02;1.33;;;1.23;;
22186;SDS011;11259;52.146;12.844;2023-02-18T08:18:28;0.80;;;0.80;;
22186;SDS011;11259;52.146;12.844;2023-02-18T08:20:53;0.98;;;0.88;;
22186;SDS011;11259;52.146;12.844;2023-02-18T08:23:19;0.85;;;0.80;;
22186;SDS011;11259;52.146;12.844;2023-02-18T08:25:46;1.20;;;1.13;;
22186;SDS011;11259;52.146;12.844;2023-02-18T08:28:14;1.00;;;0.90;;
22186;SDS011;11259;52.146;12.844;2023-02-18T08:30:43;0.70;;;0.70;;
22186;SDS011;11259;52.146;12.844;2023-02-18T08:33:08;0.77;;;0.70;;
22186;SDS011;11259;52.146;12.844;2023-02-18T08:35:34;0.68;;;0.68;;
22186;SDS011;11259;52.146;12.844;2023-02-18T08:37:59;0.88;;;0.70;;
22186;SDS011;11259;52.146;12.844;2023-02-18T08:40:24;1.35;;;0.90;;
22186;SDS011;11259;52.146;12.844;2023-02-18T08:42:50;0.70;;;0.70;;
22186;SDS011;11259;52.146;12.844;2023-02-18T08:45:16;0.60;;;0.60;;
22186;SDS011;11259;52.146;12.844;2023-02-18T08:47:42;1.13;;;0.65;;
22186;SDS011;11259;52.146;12.844;2023-02-18T08:50:07;1.02;;;0.95;;
22186;SDS011;11259;52.146;12.844;2023-02-18T08:52:33;1.00;;;0.88;;
22186;SDS011;11259;52.146;12.844;2023-02-18T08:54:58;0.75;;;0.75;;
22186;SDS011;11259;52.146;12.844;2023-02-18T08:57:24;1.67;;;1.13;;
22186;SDS011;11259;52.146;12.844;2023-02-18T08:59:49;1.60;;;1.02;;
22186;SDS011;11259;52.146;12.844;2023-02-18T09:02:16;0.80;;;0.80;;
22186;SDS011;11259;52.146;12.844;2023-02-18T09:04:41;3.15;;;2.30;;
22186;SDS011;11259;52.146;12.844;2023-02-18T09:07:07;2.15;;;1.13;;
22186;SDS011;11259;52.146;12.844;2023-02-18T09:09:32;2.63;;;1.50;;
22186;SDS011;11259;52.146;12.844;2023-02-18T09:11:57;4.32;;;1.77;;
22186;SDS011;11259;52.146;12.844;2023-02-18T09:14:23;5.32;;;1.52;;
22186;SDS011;11259;52.146;12.844;2023-02-18T09:16:48;2.22;;;1.63;;
22186;SDS011;11259;52.146;12.844;2023-02-18T09:19:15;1.30;;;1.13;;
22186;SDS011;11259;52.146;12.844;2023-02-18T09:21:40;1.60;;;1.50;;
22186;SDS011;11259;52.146;12.844;2023-02-18T09:24:05;2.22;;;1.70;;
22186;SDS011;11259;52.146;12.844;2023-02-18T09:26:31;3.45;;;1.95;;
22186;SDS011;11259;52.146;12.844;2023-02-18T09:28:56;4.25;;;2.08;;
22186;SDS011;11259;52.146;12.844;2023-02-18T09:31:22;3.25;;;2.22;;
22186;SDS011;11259;52.146;12.844;2023-02-18T09:33:49;2.25;;;1.90;;
22186;SDS011;11259;52.146;12.844;2023-02-18T09:36:17;4.05;;;1.90;;
22186;SDS011;11259;52.146;12.844;2023-02-18T09:38:43;2.35;;;2.00;;
22186;SDS011;11259;52.146;12.844;2023-02-18T09:41:09;2.45;;;2.17;;
22186;SDS011;11259;52.146;12.844;2023-02-18T09:43:40;4.88;;;1.80;;
22186;SDS011;11259;52.146;12.844;2023-02-18T09:46:11;1.70;;;1.60;;
22186;SDS011;11259;52.146;12.844;2023-02-18T09:48:40;1.90;;;1.42;;
22186;SDS011;11259;52.146;12.844;2023-02-18T09:51:09;2.22;;;1.80;;
22186;SDS011;11259;52.146;12.844;2023-02-18T09:53:39;2.13;;;1.58;;
22186;SDS011;11259;52.146;12.844;2023-02-18T09:56:06;1.95;;;1.33;;
22186;SDS011;11259;52.146;12.844;2023-02-18T09:58:33;4.43;;;3.15;;
22186;SDS011;11259;52.146;12.844;2023-02-18T10:01:01;3.80;;;2.95;;
22186;SDS011;11259;52.146;12.844;2023-02-18T10:03:28;3.40;;;2.35;;
22186;SDS011;11259;52.146;12.844;2023-02-18T10:05:55;4.65;;;2.05;;
22186;SDS011;11259;52.146;12.844;2023-02-18T10:08:23;2.35;;;1.90;;
22186;SDS011;11259;52.146;12.844;2023-02-18T10:10:51;2.38;;;1.95;;
22186;SDS011;11259;52.146;12.844;2023-02-18T10:13:17;2.78;;;1.98;;
22186;SDS011;11259;52.146;12.844;2023-02-18T10:15:44;3.53;;;2.70;;
22186;SDS011;11259;52.146;12.844;2023-02-18T10:18:15;1.75;;;1.65;;
22186;SDS011;11259;52.146;12.844;2023-02-18T10:20:46;3.13;;;2.30;;
22186;SDS011;11259;52.146;12.844;2023-02-18T10:23:12;1.58;;;1.35;;
22186;SDS011;11259;52.146;12.844;2023-02-18T10:25:42;1.80;;;1.63;;
22186;SDS011;11259;52.146;12.844;2023-02-18T10:28:09;1.98;;;1.58;;
22186;SDS011;11259;52.146;12.844;2023-02-18T10:30:36;1.55;;;1.20;;
22186;SDS011;11259;52.146;12.844;2023-02-18T10:33:10;1.65;;;1.40;;
22186;SDS011;11259;52.146;12.844;2023-02-18T10:35:44;1.30;;;1.20;;
22186;SDS011;11259;52.146;12.844;2023-02-18T10:38:14;1.13;;;1.02;;
22186;SDS011;11259;52.146;12.844;2023-02-18T10:40:45;2.38;;;1.27;;
22186;SDS011;11259;52.146;12.844;2023-02-18T10:43:20;1.20;;;1.10;;
22186;SDS011;11259;52.146;12.844;2023-02-18T10:45:50;1.27;;;1.10;;
22186;SDS011;11259;52.146;12.844;2023-02-18T10:48:26;1.90;;;1.33;;
22186;SDS011;11259;52.146;12.844;2023-02-18T10:51:05;2.03;;;1.83;;
22186;SDS011;11259;52.146;12.844;2023-02-18T10:53:39;2.78;;;0.75;;
22186;SDS011;11259;52.146;12.844;2023-02-18T10:56:06;1.10;;;1.00;;
22186;SDS011;11259;52.146;12.844;2023-02-18T10:58:34;1.52;;;0.98;;
22186;SDS011;11259;52.146;12.844;2023-02-18T11:01:02;1.30;;;1.08;;
22186;SDS011;11259;52.146;12.844;2023-02-18T11:03:37;1.88;;;1.25;;
22186;SDS011;11259;52.146;12.844;2023-02-18T11:06:05;1.02;;;1.00;;
22186;SDS011;11259;52.146;12.844;2023-02-18T11:08:41;3.33;;;1.85;;
22186;SDS011;11259;52.146;12.844;2023-02-18T11:11:08;4.20;;;1.50;;
22186;SDS011;11259;52.146;12.844;2023-02-18T11:13:39;2.28;;;1.38;;
22186;SDS011;11259;52.146;12.844;2023-02-18T11:16:05;1.20;;;0.82;;
22186;SDS011;11259;52.146;12.844;2023-02-18T11:18:34;1.30;;;1.17;;
22186;SDS011;11259;52.146;12.844;2023-02-18T11:21:01;1.30;;;1.20;;
22186;SDS011;11259;52.146;12.844;2023-02-18T11:23:28;1.58;;;1.10;;
22186;SDS011;11259;52.146;12.844;2023-02-18T11:25:54;2.28;;;1.23;;
22186;SDS011;11259;52.146;12.844;2023-02-18T11:28:26;1.63;;;1.20;;
22186;SDS011;11259;52.146;12.844;2023-02-18T11:30:56;1.58;;;1.13;;
22186;SDS011;11259;52.146;12.844;2023-02-18T11:33:24;1.17;;;1.08;;
22186;SDS011;11259;52.146;12.844;2023-02-18T11:35:54;1.42;;;1.23;;
22186;SDS011;11259;52.146;12.844;2023-02-18T11:38:21;1.30;;;1.10;;
22186;SDS011;11259;52.146;12.844;2023-02-18T11:40:52;1.92;;;1.40;;
22186;SDS011;11259;52.146;12.844;2023-02-18T11:43:18;1.20;;;1.00;;
22186;SDS011;11259;52.146;12.844;2023-02-18T11:45:44;2.58;;;1.20;;
22186;SDS011;11259;52.146;12.844;2023-02-18T11:48:15;0.95;;;0.90;;
22186;SDS011;11259;52.146;12.844;2023-02-18T11:50:41;1.70;;;1.40;;
22186;SDS011;11259;52.146;12.844;2023-02-18T11:53:24;1.95;;;1.75;;
22186;SDS011;11259;52.146;12.844;2023-02-18T11:55:52;1.55;;;1.45;;
22186;SDS011;11259;52.146;12.844;2023-02-18T11:58:18;1.67;;;1.52;;
22186;SDS011;11259;52.146;12.844;2023-02-18T12:00:45;1.67;;;1.55;;
22186;SDS011;11259;52.146;12.844;2023-02-18T12:03:13;1.65;;;1.30;;
22186;SDS011;11259;52.146;12.844;2023-02-18T12:05:43;1.35;;;1.17;;
22186;SDS011;11259;52.146;12.844;2023-02-18T12:08:09;4.43;;;1.35;;
22186;SDS011;11259;52.146;12.844;2023-02-18T12:10:38;1.70;;;1.25;;
22186;SDS011;11259;52.146;12.844;2023-02-18T12:13:06;1.05;;;0.80;;
22186;SDS011;11259;52.146;12.844;2023-02-18T12:15:45;1.30;;;1.20;;
22186;SDS011;11259;52.146;12.844;2023-02-18T12:18:19;1.15;;;1.05;;
22186;SDS011;11259;52.146;12.844;2023-02-18T12:21:07;1.52;;;1.17;;
22186;SDS011;11259;52.146;12.844;2023-02-18T12:23:55;1.15;;;1.00;;
22186;SDS011;11259;52.146;12.844;2023-02-18T12:26:25;0.80;;;0.80;;
22186;SDS011;11259;52.146;12.844;2023-02-18T12:31:51;0.75;;;0.75;;
22186;SDS011;11259;52.146;12.844;2023-02-18T12:34:38;0.60;;;0.60;;
22186;SDS011;11259;52.146;12.844;2023-02-18T12:37:13;1.20;;;1.00;;
22186;SDS011;11259;52.146;12.844;2023-02-18T12:39:55;0.70;;;0.70;;
22186;SDS011;11259;52.146;12.844;2023-02-18T12:42:30;0.60;;;0.60;;
22186;SDS011;11259;52.146;12.844;2023-02-18T12:45:12;0.70;;;0.70;;
22186;SDS011;11259;52.146;12.844;2023-02-18T12:47:56;0.50;;;0.50;;
22186;SDS011;11259;52.146;12.844;2023-02-18T12:53:35;0.50;;;0.50;;
22186;SDS011;11259;52.146;12.844;2023-02-18T12:56:16;0.50;;;0.50;;
22186;SDS011;11259;52.146;12.844;2023-02-18T12:58:55;0.70;;;0.63;;
22186;SDS011;11259;52.146;12.844;2023-02-18T13:01:29;0.70;;;0.70;;
22186;SDS011;11259;52.146;12.844;2023-02-18T13:04:07;1.67;;;1.33;;
22186;SDS011;11259;52.146;12.844;2023-02-18T13:06:46;1.00;;;0.90;;
22186;SDS011;11259;52.146;12.844;2023-02-18T13:09:19;1.77;;;1.58;;
22186;SDS011;11259;52.146;12.844;2023-02-18T13:11:51;3.65;;;1.67;;
22186;SDS011;11259;52.146;12.844;2023-02-18T13:14:21;1.88;;;1.63;;
22186;SDS011;11259;52.146;12.844;2023-02-18T13:16:48;4.50;;;1.73;;
22186;SDS011;11259;52.146;12.844;2023-02-18T13:19:17;2.58;;;1.80;;
22186;SDS011;11259;52.146;12.844;2023-02-18T13:21:46;2.47;;;1.63;;
22186;SDS011;11259;52.146;12.844;2023-02-18T13:24:13;3.28;;;1.30;;
22186;SDS011;11259;52.146;12.844;2023-02-18T13:26:49;1.90;;;0.88;;
22186;SDS011;11259;52.146;12.844;2023-02-18T13:29:19;0.70;;;0.70;;
22186;SDS011;11259;52.146;12.844;2023-02-18T13:31:51;0.73;;;0.73;;
22186;SDS011;11259;52.146;12.844;2023-02-18T13:34:23;0.55;;;0.55;;
22186;SDS011;11259;52.146;12.844;2023-02-18T13:36:57;0.70;;;0.70;;
22186;SDS011;11259;52.146;12.844;2023-02-18T13:39:26;1.52;;;1.27;;
22186;SDS011;11259;52.146;12.844;2023-02-18T13:42:09;2.05;;;0.85;;
22186;SDS011;11259;52.146;12.844;2023-02-18T13:44:38;1.17;;;1.00;;
22186;SDS011;11259;52.146;12.844;2023-02-18T13:47:05;1.10;;;0.93;;
22186;SDS011;11259;52.146;12.844;2023-02-18T13:49:32;0.90;;;0.90;;
22186;SDS011;11259;52.146;12.844;2023-02-18T13:52:00;1.00;;;1.00;;
22186;SDS011;11259;52.146;12.844;2023-02-18T13:54:27;1.27;;;1.17;;
22186;SDS011;11259;52.146;12.844;2023-02-18T13:56:56;2.60;;;1.40;;
22186;SDS011;11259;52.146;12.844;2023-02-18T13:59:25;1.50;;;1.40;;
22186;SDS011;11259;52.146;12.844;2023-02-18T14:01:55;2.17;;;1.50;;
22186;SDS011;11259;52.146;12.844;2023-02-18T14:04:48;0.85;;;0.85;;
22186;SDS011;11259;52.146;12.844;2023-02-18T14:07:21;0.70;;;0.70;;
22186;SDS011;11259;52.146;12.844;2023-02-18T14:09:49;0.50;;;0.50;;
22186;SDS011;11259;52.146;12.844;2023-02-18T14:12:17;0.60;;;0.60;;
22186;SDS011;11259;52.146;12.844;2023-02-18T14:14:49;0.60;;;0.60;;
22186;SDS011;11259;52.146;12.844;2023-02-18T14:23:07;0.88;;;0.70;;
22186;SDS011;11259;52.146;12.844;2023-02-18T14:25:37;0.85;;;0.85;;
22186;SDS011;11259;52.146;12.844;2023-02-18T14:28:15;0.60;;;0.60;;
22186;SDS011;11259;52.146;12.844;2023-02-18T14:31:05;0.60;;;0.60;;
22186;SDS011;11259;52.146;12.844;2023-02-18T14:33:50;1.00;;;0.80;;
22186;SDS011;11259;52.146;12.844;2023-02-18T14:36:27;0.60;;;0.60;;
22186;SDS011;11259;52.146;12.844;2023-02-18T14:38:56;0.60;;;0.60;;
22186;SDS011;11259;52.146;12.844;2023-02-18T14:41:38;0.77;;;0.77;;
22186;SDS011;11259;52.146;12.844;2023-02-18T14:44:19;1.02;;;0.93;;
22186;SDS011;11259;52.146;12.844;2023-02-18T14:47:02;0.60;;;0.60;;
22186;SDS011;11259;52.146;12.844;2023-02-18T14:49:38;1.15;;;1.15;;
22186;SDS011;11259;52.146;12.844;2023-02-18T14:52:05;0.55;;;0.55;;
22186;SDS011;11259;52.146;12.844;2023-02-18T14:54:36;0.80;;;0.80;;
22186;SDS011;11259;52.146;12.844;2023-02-18T14:57:04;0.80;;;0.80;;
22186;SDS011;11259;52.146;12.844;2023-02-18T14:59:33;0.80;;;0.80;;